Terminal Aerodrome Forecast
Issued by NWS

Home | Current Version | Previous Version | Text Only | Print | Product List | Glossary On
Versions: 1 2 3 4 5 6 7 8 9 10 11 12 13 14
000
FTUS42 KMLB 102300
TAFTIX
TAF
KTIX 102320Z 1100/1124 19006KT P6SM VCSH SCT020 BKN120
     FM110200 19003KT P6SM BKN250
     FM111200 16005KT P6SM FEW025 SCT250
     FM111500 11012KT P6SM SCT030 SCT150 BKN250
      AMD NOT SKED 1101/1111=

USA.gov is the U.S. government's official web portal to all federal, state and local government web resources and services.